Time;durP1;ratioP1;P1;durP2;ratioP2;P2;SDS_P1;SDS_P2;PMS_P1;PMS_P2;Temp;Humidity;BMP_temperature;BMP_pressure;BME280_temperature;BME280_humidity;BME280_pressure;Samples;Min_cycle;Max_cycle;Signal;HPM_P1;HPM_P2
2022/10/15 00:00:17;;;;;;;22.50;10.57;;;13.20;99.90;;;;;;6225019;22;20358;-88
2022/10/15 00:02:42;;;;;;;19.95;9.82;;;13.20;99.90;;;;;;6199956;22;20030;-90
2022/10/15 00:05:08;;;;;;;22.37;10.33;;;13.20;99.90;;;;;;6224679;22;20106;-91
2022/10/15 00:11:40;;;;;;;22.52;9.98;;;13.20;99.90;;;;;;6277443;22;20095;-89
2022/10/15 00:14:05;;;;;;;19.42;9.90;;;13.10;99.90;;;;;;6224525;22;20015;-92
2022/10/15 00:16:32;;;;;;;19.60;10.43;;;13.10;99.90;;;;;;6225106;22;20019;-91
2022/10/15 00:18:58;;;;;;;25.52;10.95;;;13.10;99.90;;;;;;6224935;22;20254;-90
2022/10/15 00:21:40;;;;;;;20.88;10.43;;;13.20;99.90;;;;;;6224870;22;20020;-90
2022/10/15 00:24:25;;;;;;;23.25;10.73;;;13.20;99.90;;;;;;6199860;22;20103;-89
2022/10/15 00:26:50;;;;;;;20.55;10.30;;;13.20;99.90;;;;;;6250017;22;20020;-90
2022/10/15 00:29:16;;;;;;;20.93;10.93;;;13.20;99.90;;;;;;6174637;22;20012;-90
2022/10/15 00:31:41;;;;;;;21.40;10.33;;;13.10;99.90;;;;;;6199597;22;20026;-89
2022/10/15 00:34:09;;;;;;;21.80;11.10;;;13.10;99.90;;;;;;6199441;22;20015;-90
2022/10/15 00:36:35;;;;;;;22.73;10.05;;;13.20;99.90;;;;;;6226565;22;20039;-93
2022/10/15 00:39:03;;;;;;;;;;;13.20;99.90;;;;;;6227451;22;20020;-89
2022/10/15 00:41:35;;;;;;;23.98;10.98;;;13.20;99.90;;;;;;6227477;22;19920;-90
2022/10/15 00:44:21;;;;;;;20.90;10.60;;;13.20;99.90;;;;;;6233414;22;20396;-88
2022/10/15 00:46:58;;;;;;;21.65;11.15;;;13.20;99.90;;;;;;6264607;22;20437;-89
2022/10/15 00:49:29;;;;;;;23.60;11.27;;;13.20;99.90;;;;;;6251655;22;20019;-89
2022/10/15 00:51:59;;;;;;;23.05;11.52;;;13.20;99.90;;;;;;6226199;22;20113;-89
2022/10/15 00:54:28;;;;;;;24.88;11.48;;;13.20;99.90;;;;;;6226167;22;20026;-89
2022/10/15 00:56:54;;;;;;;19.50;10.40;;;13.20;99.90;;;;;;6225922;22;20322;-91
2022/10/15 00:59:23;;;;;;;21.13;10.93;;;13.20;99.90;;;;;;6201052;22;20012;-90
2022/10/15 01:01:49;;;;;;;24.23;11.90;;;13.20;99.90;;;;;;6251494;22;20008;-90
2022/10/15 01:04:17;;;;;;;21.98;10.75;;;13.20;99.90;;;;;;6225441;22;20088;-90
2022/10/15 01:06:43;;;;;;;23.27;11.30;;;13.20;99.90;;;;;;6226617;22;20016;-89
2022/10/15 01:09:31;;;;;;;20.35;10.93;;;13.20;99.90;;;;;;6226678;22;20020;-91
2022/10/15 01:11:56;;;;;;;21.90;10.48;;;13.20;99.90;;;;;;6226352;22;20042;-92
2022/10/15 01:14:47;;;;;;;24.73;11.33;;;13.20;99.90;;;;;;6226280;22;20441;-91
2022/10/15 01:17:22;;;;;;;22.80;11.55;;;13.20;99.90;;;;;;6227000;22;20020;-90
2022/10/15 01:20:16;;;;;;;21.80;10.90;;;13.10;99.90;;;;;;6231536;22;20023;-90
2022/10/15 01:23:07;;;;;;;22.20;11.10;;;13.20;99.90;;;;;;6213805;23;20043;-91
2022/10/15 01:25:41;;;;;;;21.90;10.60;;;13.10;99.90;;;;;;6200420;23;20017;-90
2022/10/15 01:28:28;;;;;;;21.77;10.57;;;13.10;99.90;;;;;;6196097;23;20035;-92
2022/10/15 01:30:59;;;;;;;21.38;11.32;;;13.10;99.90;;;;;;6195743;23;20476;-91
2022/10/15 01:33:38;;;;;;;21.40;11.25;;;13.10;99.90;;;;;;6195800;23;20016;-92
2022/10/15 01:36:30;;;;;;;24.48;11.57;;;13.10;99.90;;;;;;6195980;23;20013;-92
2022/10/15 01:39:03;;;;;;;20.48;10.98;;;13.10;99.90;;;;;;6195881;23;20020;-93
2022/10/15 01:41:48;;;;;;;21.55;10.93;;;13.10;99.90;;;;;;6195657;23;20020;-91
2022/10/15 01:44:30;;;;;;;19.75;10.35;;;13.10;99.90;;;;;;6195699;23;20020;-92
2022/10/15 01:47:18;;;;;;;21.65;10.55;;;13.10;99.90;;;;;;6195183;23;20091;-90
2022/10/15 01:49:45;;;;;;;20.23;10.32;;;13.10;99.90;;;;;;6195750;23;20341;-90
2022/10/15 01:52:25;;;;;;;22.08;10.70;;;13.10;99.90;;;;;;6221067;23;20102;-90
2022/10/15 01:54:52;;;;;;;22.30;11.05;;;13.10;99.90;;;;;;6195522;23;20016;-90
2022/10/15 01:57:20;;;;;;;25.98;11.27;;;13.10;99.90;;;;;;6195811;23;20016;-91
2022/10/15 01:59:49;;;;;;;20.13;9.88;;;13.10;99.90;;;;;;6195942;23;20016;-90
2022/10/15 02:02:14;;;;;;;22.38;10.88;;;13.10;99.90;;;;;;6171159;23;20016;-91
2022/10/15 02:04:40;;;;;;;22.57;10.50;;;13.10;99.90;;;;;;6195147;23;20050;-90
2022/10/15 02:07:24;;;;;;;20.80;10.53;;;13.10;99.90;;;;;;6195609;23;20289;-91
2022/10/15 02:09:56;;;;;;;21.55;10.43;;;13.10;99.90;;;;;;6195573;23;20093;-92
2022/10/15 02:13:04;;;;;;;21.70;10.20;;;13.10;99.90;;;;;;6195454;23;20027;-90
2022/10/15 02:15:34;;;;;;;21.63;10.70;;;13.10;99.90;;;;;;6220428;23;20020;-90
2022/10/15 02:18:03;;;;;;;17.13;9.27;;;13.10;99.90;;;;;;6195304;23;20013;-90
2022/10/15 02:20:43;;;;;;;21.77;10.27;;;13.10;99.90;;;;;;6202908;22;20055;-90
2022/10/15 02:23:20;;;;;;;19.88;9.82;;;13.10;99.90;;;;;;6225263;22;20024;-92
2022/10/15 02:25:48;;;;;;;19.63;10.43;;;13.10;99.90;;;;;;6225789;22;20449;-90
2022/10/15 02:32:23;;;;;;;18.10;9.30;;;13.00;99.90;;;;;;6154684;23;20025;-91
2022/10/15 02:34:51;;;;;;;20.50;10.48;;;13.00;99.90;;;;;;6105676;23;20014;-90
2022/10/15 02:37:21;;;;;;;23.15;10.90;;;13.00;99.90;;;;;;6105427;23;20021;-92
2022/10/15 02:39:47;;;;;;;19.50;9.77;;;13.00;99.90;;;;;;6105581;23;20104;-90
2022/10/15 02:42:31;;;;;;;19.30;9.95;;;13.00;99.90;;;;;;6105629;23;20049;-91
2022/10/15 02:44:56;;;;;;;19.27;10.23;;;13.00;99.90;;;;;;6105679;23;20092;-89
2022/10/15 02:47:22;;;;;;;18.37;10.33;;;13.00;99.90;;;;;;6105734;23;20493;-91
2022/10/15 02:49:48;;;;;;;20.50;11.00;;;13.00;99.90;;;;;;6105037;23;20121;-91
2022/10/15 02:52:14;;;;;;;23.67;11.23;;;13.00;99.90;;;;;;6105327;23;20335;-91
2022/10/15 02:54:39;;;;;;;16.20;9.40;;;13.00;99.90;;;;;;6105369;23;20017;-93
2022/10/15 02:57:05;;;;;;;20.43;10.70;;;13.00;99.90;;;;;;6105208;23;20029;-90
2022/10/15 02:59:31;;;;;;;22.30;10.73;;;13.00;99.90;;;;;;6081601;23;20679;-91
2022/10/15 03:01:56;;;;;;;20.27;11.20;;;12.90;99.90;;;;;;6081107;23;20021;-91
2022/10/15 03:04:22;;;;;;;20.97;9.83;;;12.90;99.90;;;;;;6105261;23;20017;-92
2022/10/15 03:06:48;;;;;;;19.07;9.73;;;12.90;99.90;;;;;;6105193;23;20253;-90
2022/10/15 03:09:14;;;;;;;18.97;9.67;;;12.90;99.90;;;;;;6105444;23;20076;-89
2022/10/15 03:11:39;;;;;;;21.98;10.60;;;12.90;99.90;;;;;;6104602;23;20447;-89
2022/10/15 03:14:05;;;;;;;21.52;10.48;;;12.90;99.90;;;;;;6105215;23;20014;-91
2022/10/15 03:16:31;;;;;;;21.38;10.73;;;12.90;99.90;;;;;;6105136;23;20076;-89
2022/10/15 03:18:57;;;;;;;21.70;10.27;;;12.90;99.90;;;;;;6105172;23;20009;-91
2022/10/15 03:21:22;;;;;;;19.77;10.20;;;12.90;99.90;;;;;;6104931;23;20793;-91
2022/10/15 03:23:48;;;;;;;21.23;10.13;;;12.90;99.90;;;;;;6105051;23;20025;-90
2022/10/15 03:26:14;;;;;;;21.50;9.93;;;12.90;99.90;;;;;;6105334;23;20730;-92
2022/10/15 03:28:40;;;;;;;18.73;9.80;;;12.90;99.90;;;;;;6107895;23;20332;-92
2022/10/15 03:31:05;;;;;;;20.57;9.63;;;12.80;99.90;;;;;;6118828;23;20249;-88
2022/10/15 03:33:31;;;;;;;18.17;9.80;;;12.90;99.90;;;;;;6109874;23;20161;-89
2022/10/15 03:35:57;;;;;;;20.03;10.40;;;12.90;99.90;;;;;;6182232;23;20091;-89
2022/10/15 03:38:22;;;;;;;19.40;9.93;;;12.90;99.90;;;;;;6195087;23;20255;-91
2022/10/15 03:40:48;;;;;;;19.90;9.60;;;12.90;99.90;;;;;;6194964;23;20095;-91
2022/10/15 03:43:14;;;;;;;22.55;10.60;;;12.80;99.90;;;;;;6194683;23;20023;-92
2022/10/15 03:45:40;;;;;;;18.75;9.90;;;12.90;99.90;;;;;;6145462;23;20056;-90
2022/10/15 03:48:06;;;;;;;19.93;10.17;;;12.90;99.90;;;;;;6169993;23;20012;-92
2022/10/15 03:50:32;;;;;;;18.05;9.27;;;12.80;99.90;;;;;;6170177;23;20449;-92
2022/10/15 03:52:58;;;;;;;17.55;9.10;;;12.90;99.90;;;;;;6194617;23;20016;-92
2022/10/15 03:55:24;;;;;;;19.67;10.07;;;12.80;99.90;;;;;;6169946;23;20015;-92
2022/10/15 03:57:49;;;;;;;19.75;10.18;;;12.80;99.90;;;;;;6194781;23;20487;-92
2022/10/15 04:00:15;;;;;;;20.63;10.93;;;12.80;99.90;;;;;;6194931;23;20082;-90
2022/10/15 04:02:41;;;;;;;20.02;10.43;;;12.80;99.90;;;;;;6195808;23;20020;-93
2022/10/15 04:05:08;;;;;;;17.73;9.53;;;12.90;99.90;;;;;;6176875;23;20020;-88
2022/10/15 04:07:34;;;;;;;20.60;11.38;;;12.80;99.90;;;;;;6167246;23;20150;-90
2022/10/15 04:10:00;;;;;;;22.13;10.80;;;12.80;99.90;;;;;;6181744;23;20051;-90
2022/10/15 04:12:26;;;;;;;17.77;10.57;;;12.80;99.90;;;;;;6172174;23;20035;-91
2022/10/15 04:14:51;;;;;;;21.37;10.53;;;12.80;99.90;;;;;;6196738;23;20012;-91
2022/10/15 04:17:17;;;;;;;18.37;10.77;;;12.80;99.90;;;;;;6147276;23;20359;-90
2022/10/15 04:19:43;;;;;;;19.58;9.27;;;12.80;99.90;;;;;;6171568;23;20028;-91
2022/10/15 04:22:09;;;;;;;22.40;10.37;;;12.80;99.90;;;;;;6171488;23;20020;-91
2022/10/15 04:24:35;;;;;;;20.10;9.87;;;12.80;99.90;;;;;;6147108;23;20262;-91
2022/10/15 04:27:00;;;;;;;20.77;10.73;;;12.80;99.90;;;;;;6196277;23;20074;-91
2022/10/15 04:29:26;;;;;;;20.80;10.25;;;12.80;99.90;;;;;;6196252;23;20016;-91
2022/10/15 04:31:52;;;;;;;19.70;10.65;;;12.80;99.90;;;;;;6171577;23;20012;-93
2022/10/15 04:34:18;;;;;;;20.07;10.73;;;12.90;99.90;;;;;;6171385;23;20027;-91
2022/10/15 04:36:43;;;;;;;20.93;11.33;;;12.90;99.90;;;;;;6196664;23;20018;-91
2022/10/15 04:39:09;;;;;;;18.37;9.63;;;12.80;99.90;;;;;;6196808;23;20016;-91
2022/10/15 04:41:35;;;;;;;21.90;10.70;;;12.90;99.90;;;;;;6147345;23;20020;-91
2022/10/15 04:44:00;;;;;;;19.77;10.10;;;12.90;99.90;;;;;;6171934;23;20338;-90
2022/10/15 04:46:26;;;;;;;20.90;10.63;;;12.90;99.90;;;;;;6147389;23;20051;-90
2022/10/15 04:48:56;;;;;;;19.35;9.57;;;12.80;99.90;;;;;;6172003;23;20020;-92
2022/10/15 04:51:23;;;;;;;22.35;10.52;;;12.90;99.90;;;;;;6196414;23;20035;-92
2022/10/15 04:53:49;;;;;;;18.35;10.05;;;12.90;99.90;;;;;;6171623;23;20098;-92
2022/10/15 04:56:20;;;;;;;20.57;10.17;;;12.80;99.90;;;;;;6196408;23;20538;-91
2022/10/15 04:58:47;;;;;;;21.33;10.35;;;12.80;99.90;;;;;;6196491;23;20598;-92
2022/10/15 05:01:15;;;;;;;22.25;10.18;;;12.80;99.90;;;;;;6171639;23;20016;-92
2022/10/15 05:03:43;;;;;;;21.15;10.50;;;12.80;99.90;;;;;;6196104;23;20016;-91
2022/10/15 05:06:20;;;;;;;22.27;10.07;;;12.80;99.90;;;;;;6196231;23;20017;-93
2022/10/15 05:08:46;;;;;;;22.05;9.90;;;12.80;99.90;;;;;;6196082;23;20464;-91
2022/10/15 05:11:17;;;;;;;19.83;10.05;;;12.80;99.90;;;;;;6196264;23;20192;-92
2022/10/15 05:13:43;;;;;;;22.63;11.52;;;12.80;99.90;;;;;;6196005;23;20146;-91
2022/10/15 05:16:09;;;;;;;19.92;9.48;;;12.80;99.90;;;;;;6196110;23;20016;-91
2022/10/15 05:18:35;;;;;;;22.42;10.20;;;12.80;99.90;;;;;;6196276;23;20019;-91
2022/10/15 05:21:01;;;;;;;20.13;9.90;;;12.80;99.90;;;;;;6195667;23;20511;-91
2022/10/15 05:23:27;;;;;;;20.45;10.73;;;12.80;99.90;;;;;;6196070;23;20316;-92
2022/10/15 05:25:52;;;;;;;19.80;9.87;;;12.80;99.90;;;;;;6171301;23;20012;-92
2022/10/15 05:28:18;;;;;;;22.87;10.63;;;12.80;99.90;;;;;;6196557;23;20258;-91
2022/10/15 05:30:44;;;;;;;18.00;9.75;;;12.70;99.90;;;;;;6195919;23;20019;-92
2022/10/15 05:33:10;;;;;;;17.85;9.77;;;12.70;99.90;;;;;;6171385;23;20020;-91
2022/10/15 05:35:36;;;;;;;20.15;10.38;;;12.70;99.90;;;;;;6195998;23;20095;-91
2022/10/15 05:38:17;;;;;;;20.25;10.80;;;12.70;99.90;;;;;;6171260;23;20058;-91
2022/10/15 05:40:48;;;;;;;20.42;10.18;;;12.70;99.90;;;;;;6195229;23;20016;-90
2022/10/15 05:43:14;;;;;;;19.25;10.10;;;12.70;99.90;;;;;;6220926;23;20012;-91
2022/10/15 05:45:39;;;;;;;21.08;10.20;;;12.70;99.90;;;;;;6195683;23;21281;-91
2022/10/15 05:48:05;;;;;;;21.43;10.47;;;12.70;99.90;;;;;;6170860;23;20439;-91
2022/10/15 05:50:31;;;;;;;23.15;10.77;;;12.70;99.90;;;;;;6196193;23;20018;-90
2022/10/15 05:52:57;;;;;;;20.98;10.65;;;12.70;99.90;;;;;;6195629;23;20115;-91
2022/10/15 05:55:23;;;;;;;21.67;10.67;;;12.70;99.90;;;;;;6195883;23;20008;-91
2022/10/15 05:57:48;;;;;;;22.67;11.00;;;12.70;99.90;;;;;;6195897;23;20095;-92
2022/10/15 06:00:14;;;;;;;23.07;11.37;;;12.70;99.90;;;;;;6171102;23;20016;-93
2022/10/15 06:02:40;;;;;;;19.77;10.82;;;12.70;99.90;;;;;;6171151;23;20012;-92
2022/10/15 06:05:06;;;;;;;24.42;11.27;;;12.70;99.90;;;;;;6171033;23;20346;-92
2022/10/15 06:07:32;;;;;;;18.92;10.55;;;12.70;99.90;;;;;;6195952;23;20016;-91
2022/10/15 06:09:58;;;;;;;21.40;10.93;;;12.70;99.90;;;;;;6196545;23;20484;-91
2022/10/15 06:12:23;;;;;;;25.10;11.63;;;12.70;99.90;;;;;;6200979;23;20020;-90
2022/10/15 06:14:49;;;;;;;24.37;11.07;;;12.70;99.90;;;;;;6210628;23;20073;-90
2022/10/15 06:17:15;;;;;;;22.43;11.20;;;12.70;99.90;;;;;;6201179;23;20259;-92
2022/10/15 06:19:40;;;;;;;25.93;12.47;;;12.70;99.90;;;;;;6195449;23;20020;-92
2022/10/15 06:22:06;;;;;;;26.73;12.57;;;12.70;99.90;;;;;;6170602;23;20052;-92
2022/10/15 06:24:32;;;;;;;26.83;12.40;;;12.70;99.90;;;;;;6170828;23;20016;-90
2022/10/15 06:26:59;;;;;;;23.40;11.13;;;12.70;99.90;;;;;;6195451;23;20349;-91
2022/10/15 06:29:24;;;;;;;;;;;12.70;99.90;;;;;;6196000;23;20016;-91
2022/10/15 06:31:50;;;;;;;22.73;11.35;;;12.70;99.90;;;;;;6245414;23;20252;-91
2022/10/15 06:34:16;;;;;;;22.63;11.23;;;12.70;99.90;;;;;;6195005;23;20016;-91
2022/10/15 06:47:06;;;;;;;26.73;12.55;;;12.80;99.90;;;;;;6223511;22;20028;-87
2022/10/15 07:12:50;;;;;;;26.30;12.75;;;12.80;99.90;;;;;;6270252;22;20020;-90
2022/10/15 07:15:17;;;;;;;25.65;12.18;;;12.90;99.90;;;;;;6170493;23;20043;-91
2022/10/15 07:17:48;;;;;;;25.27;12.38;;;12.90;99.90;;;;;;6193184;23;20103;-91
2022/10/15 07:20:13;;;;;;;26.80;12.88;;;12.80;99.90;;;;;;6194769;23;20016;-92
2022/10/15 07:22:39;;;;;;;29.35;13.93;;;12.90;99.90;;;;;;6219988;23;20027;-92
2022/10/15 07:25:05;;;;;;;26.15;12.65;;;12.90;99.90;;;;;;6194971;23;20051;-91
2022/10/15 07:27:31;;;;;;;28.23;13.40;;;12.90;99.90;;;;;;6194857;23;20016;-92
2022/10/15 07:29:57;;;;;;;30.30;13.47;;;12.90;99.90;;;;;;6170000;23;20023;-90
2022/10/15 07:32:22;;;;;;;26.33;12.37;;;12.90;99.90;;;;;;6195000;23;20099;-90
2022/10/15 07:34:56;;;;;;;25.97;11.73;;;12.90;99.90;;;;;;6194867;23;20306;-92
2022/10/15 07:50:28;;;;;;;26.75;12.15;;;13.00;99.90;;;;;;6313385;22;20045;-96
2022/10/15 07:52:54;;;;;;;25.03;12.90;;;13.00;99.90;;;;;;6230523;22;20086;-96
2022/10/15 07:55:19;;;;;;;30.93;13.80;;;13.00;99.90;;;;;;6256172;22;20250;-95
2022/10/15 07:57:45;;;;;;;26.27;13.07;;;13.10;99.90;;;;;;6256364;22;20019;-96
2022/10/15 08:05:21;;;;;;;26.35;12.20;;;13.20;99.90;;;;;;6296481;22;20103;-96
2022/10/15 08:07:47;;;;;;;25.30;12.57;;;13.20;99.90;;;;;;6193527;23;20035;-96
2022/10/15 08:10:13;;;;;;;25.30;11.77;;;13.30;99.90;;;;;;6204377;23;20239;-96
2022/10/15 08:12:39;;;;;;;24.90;12.30;;;13.30;99.90;;;;;;6200758;23;20016;-94
2022/10/15 08:15:05;;;;;;;27.88;13.05;;;13.40;99.90;;;;;;6201049;23;20016;-93
2022/10/15 08:17:31;;;;;;;23.50;11.45;;;13.40;99.90;;;;;;6171892;23;20020;-96
2022/10/15 08:19:58;;;;;;;25.73;12.40;;;13.50;99.90;;;;;;6177811;23;20019;-95
2022/10/15 08:22:24;;;;;;;25.30;11.77;;;13.50;99.90;;;;;;6200830;23;20020;-96
2022/10/15 08:24:51;;;;;;;27.38;12.43;;;13.50;99.90;;;;;;6204895;23;20023;-95
2022/10/15 08:27:16;;;;;;;20.90;11.20;;;13.50;99.90;;;;;;6178262;23;20449;-96
2022/10/15 08:29:42;;;;;;;24.92;11.85;;;13.50;99.90;;;;;;6197874;23;20074;-96
2022/10/15 08:32:08;;;;;;;25.93;12.27;;;13.60;99.90;;;;;;6197872;23;20016;-96
2022/10/15 08:34:34;;;;;;;25.93;12.10;;;13.60;99.90;;;;;;6173996;23;20255;-96
2022/10/15 08:37:01;;;;;;;26.10;12.77;;;13.70;99.90;;;;;;6200343;23;20055;-95
2022/10/15 08:39:27;;;;;;;26.38;13.18;;;13.70;99.90;;;;;;6198462;23;20016;-95
2022/10/15 08:41:56;;;;;;;24.00;11.57;;;13.70;99.90;;;;;;6197595;23;20016;-95
2022/10/15 08:44:42;;;;;;;23.45;11.02;;;13.70;99.90;;;;;;6207428;23;20066;-95
2022/10/15 08:47:27;;;;;;;27.55;12.27;;;13.80;99.90;;;;;;6214409;23;20020;-96
2022/10/15 08:49:56;;;;;;;31.25;12.70;;;13.80;99.90;;;;;;6211866;23;20453;-96
2022/10/15 08:53:02;;;;;;;25.42;12.85;;;13.90;99.90;;;;;;6208573;23;20019;-94
2022/10/15 08:55:38;;;;;;;24.92;12.70;;;13.80;99.90;;;;;;6212342;23;20016;-94
2022/10/15 08:58:22;;;;;;;24.98;12.00;;;13.80;99.90;;;;;;6186452;23;20012;-93
2022/10/15 09:00:53;;;;;;;24.80;12.02;;;13.90;99.90;;;;;;6211743;23;20032;-95
2022/10/15 09:03:43;;;;;;;23.80;11.93;;;13.90;99.90;;;;;;6235238;23;20027;-94
2022/10/15 09:15:20;;;;;;;24.88;12.02;;;14.00;99.90;;;;;;6293192;22;20039;-93
2022/10/15 09:17:49;;;;;;;27.10;12.70;;;14.00;99.90;;;;;;6260348;22;20098;-95
2022/10/15 09:20:19;;;;;;;26.42;13.70;;;14.10;99.90;;;;;;6285230;22;20022;-94
2022/10/15 09:22:50;;;;;;;26.63;12.93;;;14.10;99.90;;;;;;6284762;22;20015;-95
2022/10/15 09:25:19;;;;;;;24.67;12.95;;;14.10;99.90;;;;;;6258444;22;20015;-96
2022/10/15 09:27:47;;;;;;;21.60;11.82;;;14.20;99.90;;;;;;6257875;22;20352;-95
2022/10/15 09:30:25;;;;;;;21.52;11.38;;;14.20;99.90;;;;;;6259162;22;20019;-94
2022/10/15 09:32:58;;;;;;;20.58;11.23;;;14.20;99.90;;;;;;6258275;22;20080;-94
2022/10/15 09:35:27;;;;;;;19.75;10.73;;;14.30;99.90;;;;;;6258264;22;20015;-94
2022/10/15 09:38:23;;;;;;;22.98;11.38;;;14.30;99.90;;;;;;6258481;22;20098;-93
2022/10/15 09:41:09;;;;;;;18.60;9.70;;;14.30;99.90;;;;;;6257523;22;20102;-92
2022/10/15 09:43:39;;;;;;;18.95;9.07;;;14.30;99.90;;;;;;6257395;22;20038;-94
2022/10/15 09:46:05;;;;;;;20.60;10.52;;;14.30;99.90;;;;;;6257937;22;20015;-96
2022/10/15 09:48:36;;;;;;;21.02;10.77;;;14.30;99.90;;;;;;6282900;22;20407;-96
2022/10/15 09:51:23;;;;;;;20.23;10.93;;;14.30;99.90;;;;;;6258267;22;20526;-95
2022/10/15 09:54:10;;;;;;;19.15;10.07;;;14.20;99.90;;;;;;6259705;22;20019;-94
2022/10/15 09:56:47;;;;;;;21.08;10.07;;;14.20;99.90;;;;;;6258737;22;20047;-96
2022/10/15 09:59:18;;;;;;;22.20;10.30;;;14.10;99.90;;;;;;6261009;22;20016;-96
2022/10/15 10:01:59;;;;;;;20.42;10.05;;;14.10;99.90;;;;;;6271491;22;20098;-92
2022/10/15 10:04:31;;;;;;;19.25;9.43;;;14.10;99.90;;;;;;6263368;22;20449;-92
2022/10/15 10:07:01;;;;;;;21.77;10.60;;;14.10;99.90;;;;;;6263518;22;20019;-93
2022/10/15 10:10:01;;;;;;;20.48;9.85;;;14.00;99.90;;;;;;6258086;22;20076;-92
2022/10/15 10:12:36;;;;;;;20.23;9.90;;;14.00;99.90;;;;;;6218440;22;20023;-96
2022/10/15 10:15:07;;;;;;;19.90;9.60;;;14.00;99.90;;;;;;6256625;22;20015;-95
2022/10/15 10:17:33;;;;;;;21.52;9.60;;;13.90;99.90;;;;;;6256625;22;20019;-95
2022/10/15 10:20:08;;;;;;;18.90;8.95;;;13.90;99.90;;;;;;6256926;22;20019;-95
2022/10/15 10:22:47;;;;;;;20.15;9.82;;;13.90;99.90;;;;;;6260252;22;20023;-96
2022/10/15 10:25:25;;;;;;;21.27;9.82;;;13.90;99.90;;;;;;6259931;22;20016;-95
2022/10/15 10:27:54;;;;;;;22.17;9.82;;;13.80;99.90;;;;;;6259061;22;20443;-96
2022/10/15 10:30:20;;;;;;;22.77;10.20;;;13.80;99.90;;;;;;6257195;22;20487;-96
2022/10/15 10:32:47;;;;;;;22.38;10.35;;;13.80;99.90;;;;;;6256066;22;20038;-94
2022/10/15 10:35:23;;;;;;;23.40;10.00;;;13.80;99.90;;;;;;6232097;22;20047;-95
2022/10/15 10:37:49;;;;;;;21.60;10.13;;;13.80;99.90;;;;;;6283781;22;20099;-95
2022/10/15 10:40:28;;;;;;;20.73;8.75;;;13.80;99.90;;;;;;6231846;22;20051;-90
2022/10/15 10:43:29;;;;;;;19.67;8.05;;;13.80;99.90;;;;;;6256842;22;20064;-93
2022/10/15 10:46:04;;;;;;;16.13;6.75;;;13.80;99.90;;;;;;6153180;22;20098;-95
2022/10/15 10:48:42;;;;;;;16.85;7.15;;;13.80;99.90;;;;;;6256261;22;20015;-95
2022/10/15 10:51:23;;;;;;;19.70;7.50;;;13.90;99.90;;;;;;6282309;22;20015;-93
2022/10/15 10:53:55;;;;;;;17.60;7.28;;;13.90;99.90;;;;;;6256027;22;20015;-91
2022/10/15 10:56:26;;;;;;;20.65;8.88;;;13.90;99.90;;;;;;6255875;22;20340;-95
2022/10/15 10:59:02;;;;;;;17.02;7.65;;;13.90;99.90;;;;;;6293053;22;20070;-96
2022/10/15 11:01:28;;;;;;;19.13;7.93;;;14.00;99.90;;;;;;6265899;22;20011;-93
2022/10/15 11:04:09;;;;;;;16.92;8.20;;;14.00;99.90;;;;;;6264094;22;20022;-94
2022/10/15 11:09:12;;;;;;;15.68;6.65;;;14.10;99.90;;;;;;6306994;22;20030;-96
2022/10/15 11:11:47;;;;;;;13.90;6.43;;;14.10;99.90;;;;;;6256323;22;20042;-95
2022/10/15 11:14:53;;;;;;;13.27;5.82;;;14.10;99.90;;;;;;6257427;22;20092;-95
2022/10/15 11:17:31;;;;;;;16.15;6.95;;;14.20;99.90;;;;;;6211985;22;21047;-94
2022/10/15 11:20:28;;;;;;;12.60;5.85;;;14.10;99.90;;;;;;6257386;22;20019;-94
2022/10/15 11:23:14;;;;;;;14.38;5.22;;;14.20;99.90;;;;;;6153925;22;20020;-95
2022/10/15 11:25:53;;;;;;;10.98;5.40;;;14.30;99.90;;;;;;6265830;22;20059;-96
2022/10/15 11:28:25;;;;;;;10.73;5.32;;;14.30;99.90;;;;;;6232988;22;20047;-94
2022/10/15 11:31:20;;;;;;;13.73;5.63;;;14.30;99.90;;;;;;6258178;22;20449;-92
2022/10/15 11:34:07;;;;;;;12.95;5.32;;;14.30;99.90;;;;;;6224696;22;20387;-96
2022/10/15 11:36:44;;;;;;;14.03;5.77;;;14.40;99.90;;;;;;6255784;22;20447;-95
2022/10/15 11:39:16;;;;;;;11.70;5.53;;;14.40;99.90;;;;;;6255209;22;20023;-95
2022/10/15 11:42:08;;;;;;;12.43;5.18;;;14.50;99.90;;;;;;6256443;22;20019;-95
2022/10/15 11:45:00;;;;;;;12.55;5.03;;;14.50;99.90;;;;;;6274978;22;20015;-94
2022/10/15 11:47:42;;;;;;;11.57;5.32;;;14.50;99.90;;;;;;6256016;22;20015;-94
2022/10/15 11:50:31;;;;;;;12.43;5.22;;;14.60;99.90;;;;;;6256105;22;20011;-96
2022/10/15 11:53:30;;;;;;;14.38;5.53;;;14.60;99.90;;;;;;6239951;22;20073;-96
2022/10/15 11:55:56;;;;;;;13.85;5.95;;;14.60;99.90;;;;;;6255457;22;20016;-94
2022/10/15 11:58:39;;;;;;;11.43;5.40;;;14.60;99.90;;;;;;6256021;22;20053;-94
2022/10/15 12:01:19;;;;;;;11.85;5.35;;;14.60;99.90;;;;;;6256005;22;20261;-95
2022/10/15 12:03:51;;;;;;;12.95;5.25;;;14.60;99.90;;;;;;6281193;22;20094;-95
2022/10/15 12:06:23;;;;;;;14.75;5.82;;;14.60;99.90;;;;;;6308448;22;20423;-95
2022/10/15 12:08:51;;;;;;;12.25;5.40;;;14.60;99.90;;;;;;6280919;22;20524;-96
2022/10/15 12:11:22;;;;;;;11.82;5.20;;;14.70;99.90;;;;;;6230828;22;20098;-95
2022/10/15 12:14:12;;;;;;;13.27;5.38;;;14.70;99.90;;;;;;6255569;22;20019;-96
2022/10/15 12:17:01;;;;;;;12.98;5.45;;;14.80;99.90;;;;;;6256204;22;20015;-95
2022/10/15 12:20:18;;;;;;;10.63;4.97;;;14.80;99.90;;;;;;6239823;22;20065;-95
2022/10/15 12:22:47;;;;;;;12.48;5.57;;;14.90;99.90;;;;;;6130220;23;20073;-96
2022/10/15 12:25:34;;;;;;;12.80;5.80;;;14.90;99.90;;;;;;6243735;22;20444;-94
2022/10/15 12:28:25;;;;;;;14.52;5.80;;;14.90;99.90;;;;;;6281750;22;20030;-95
2022/10/15 12:31:03;;;;;;;12.05;5.30;;;14.90;99.90;;;;;;6256773;22;20019;-96
2022/10/15 12:33:31;;;;;;;11.02;5.05;;;14.90;99.90;;;;;;6283165;22;20023;-93
2022/10/15 12:36:01;;;;;;;11.77;4.97;;;14.90;99.90;;;;;;6285202;22;20496;-96
2022/10/15 12:38:33;;;;;;;12.48;5.25;;;14.90;99.90;;;;;;6258923;22;20453;-96
2022/10/15 12:41:13;;;;;;;14.18;6.30;;;14.90;99.90;;;;;;6258338;22;20015;-95
2022/10/15 12:43:45;;;;;;;10.95;4.97;;;14.90;99.90;;;;;;6284239;22;20057;-94
2022/10/15 12:46:12;;;;;;;9.70;4.50;;;14.90;99.90;;;;;;6283140;22;20088;-91
2022/10/15 12:48:44;;;;;;;13.90;5.38;;;14.90;99.90;;;;;;6257928;22;20435;-95
2022/10/15 12:51:15;;;;;;;12.98;5.90;;;14.90;99.90;;;;;;6257447;22;20022;-94
2022/10/15 12:53:43;;;;;;;9.60;4.47;;;14.90;99.90;;;;;;6283894;22;20019;-93
2022/10/15 12:56:09;;;;;;;8.38;4.88;;;14.90;99.90;;;;;;6258064;22;20015;-95
2022/10/15 12:58:57;;;;;;;10.43;4.90;;;14.90;99.90;;;;;;6257841;22;20061;-93
2022/10/15 13:01:22;;;;;;;9.88;5.03;;;14.90;99.90;;;;;;6257470;22;20016;-94
2022/10/15 13:03:48;;;;;;;11.70;5.27;;;14.90;99.90;;;;;;6257454;22;20080;-95
2022/10/15 13:06:21;;;;;;;13.82;5.53;;;14.90;99.90;;;;;;6257463;22;20086;-95
2022/10/15 13:09:10;;;;;;;10.43;5.07;;;14.90;99.90;;;;;;6257025;22;20019;-96
2022/10/15 13:19:28;;;;;;;9.90;5.07;;;14.90;99.90;;;;;;6309355;22;20034;-94
2022/10/15 13:21:58;;;;;;;12.70;5.43;;;14.90;99.90;;;;;;6256867;22;20020;-95
2022/10/15 13:25:00;;;;;;;10.90;5.18;;;14.90;99.90;;;;;;6282238;22;20022;-94
2022/10/15 13:27:32;;;;;;;12.65;5.35;;;14.90;99.90;;;;;;6236875;22;20353;-94
2022/10/15 13:30:12;;;;;;;10.82;5.13;;;14.90;99.90;;;;;;6256867;22;20054;-93
2022/10/15 13:32:54;;;;;;;11.52;5.75;;;14.90;99.90;;;;;;6256488;22;20011;-93
2022/10/15 13:35:30;;;;;;;14.70;5.93;;;14.90;99.90;;;;;;6256681;22;20023;-93
2022/10/15 13:40:31;;;;;;;11.15;5.95;;;14.90;99.90;;;;;;6277974;22;20015;-92
2022/10/15 13:43:05;;;;;;;13.10;6.10;;;14.90;99.90;;;;;;6223571;22;20023;-91
2022/10/15 13:45:32;;;;;;;11.70;5.68;;;14.90;99.90;;;;;;6214769;22;20018;-93
2022/10/15 13:48:10;;;;;;;12.93;5.75;;;14.90;99.90;;;;;;6224516;22;20079;-92
2022/10/15 14:01:15;;;;;;;12.43;5.68;;;15.00;99.90;;;;;;6275112;22;20019;-90
2022/10/15 14:03:54;;;;;;;9.25;4.35;;;14.90;99.90;;;;;;6243311;22;20024;-92
2022/10/15 14:06:24;;;;;;;9.65;4.28;;;14.90;99.90;;;;;;6225062;22;20094;-91
2022/10/15 14:08:53;;;;;;;10.57;4.05;;;14.90;99.90;;;;;;6225210;22;20026;-90
2022/10/15 14:11:19;;;;;;;10.95;4.93;;;14.90;99.90;;;;;;6224455;22;20356;-95
2022/10/15 14:13:45;;;;;;;9.30;4.57;;;14.90;99.90;;;;;;6226841;22;20039;-93
2022/10/15 14:16:28;;;;;;;9.05;4.53;;;14.90;99.90;;;;;;6224885;22;20012;-93
2022/10/15 14:19:06;;;;;;;11.68;4.65;;;14.90;99.90;;;;;;6238524;22;20020;-93
2022/10/15 14:21:33;;;;;;;9.73;4.60;;;14.90;99.90;;;;;;6230581;22;20090;-93
2022/10/15 14:24:11;;;;;;;9.88;4.47;;;14.90;99.90;;;;;;6256093;22;20084;-93
2022/10/15 14:26:38;;;;;;;9.75;4.72;;;14.90;99.90;;;;;;6256152;22;20015;-95
2022/10/15 14:29:34;;;;;;;9.85;4.50;;;14.90;99.90;;;;;;6282355;22;20038;-95